sensor_id;sensor_type;location;lat;lon;timestamp;temperature;humidity
8408;DHT22;4241;48.452;9.216;2022-12-29T00:02:47;9.80;99.90
8408;DHT22;4241;48.452;9.216;2022-12-29T00:07:42;10.00;99.90
8408;DHT22;4241;48.452;9.216;2022-12-29T00:10:09;9.80;99.90
8408;DHT22;4241;48.452;9.216;2022-12-29T00:20:34;9.90;99.90
8408;DHT22;4241;48.452;9.216;2022-12-29T00:23:19;9.80;99.90
8408;DHT22;4241;48.452;9.216;2022-12-29T00:28:50;9.70;99.90
8408;DHT22;4241;48.452;9.216;2022-12-29T00:31:34;9.80;99.90
8408;DHT22;4241;48.452;9.216;2022-12-29T00:34:18;9.80;99.90
8408;DHT22;4241;48.452;9.216;2022-12-29T00:39:33;9.80;99.90
8408;DHT22;4241;48.452;9.216;2022-12-29T00:42:17;9.80;99.90
8408;DHT22;4241;48.452;9.216;2022-12-29T00:45:02;9.80;99.90
8408;DHT22;4241;48.452;9.216;2022-12-29T00:54:50;9.90;99.90
8408;DHT22;4241;48.452;9.216;2022-12-29T00:57:18;9.90;99.90
8408;DHT22;4241;48.452;9.216;2022-12-29T01:07:06;10.10;99.90
8408;DHT22;4241;48.452;9.216;2022-12-29T01:09:33;10.10;99.90
8408;DHT22;4241;48.452;9.216;2022-12-29T01:12:19;10.10;99.90
8408;DHT22;4241;48.452;9.216;2022-12-29T01:15:06;10.40;99.90
8408;DHT22;4241;48.452;9.216;2022-12-29T01:17:34;10.10;99.90
8408;DHT22;4241;48.452;9.216;2022-12-29T01:20:01;10.20;99.90
8408;DHT22;4241;48.452;9.216;2022-12-29T01:27:23;10.30;99.90
8408;DHT22;4241;48.452;9.216;2022-12-29T01:32:17;10.40;99.90
8408;DHT22;4241;48.452;9.216;2022-12-29T01:34:44;10.40;99.90
8408;DHT22;4241;48.452;9.216;2022-12-29T01:37:11;10.40;99.90
8408;DHT22;4241;48.452;9.216;2022-12-29T01:39:38;10.50;99.90
8408;DHT22;4241;48.452;9.216;2022-12-29T01:44:49;10.60;99.90
8408;DHT22;4241;48.452;9.216;2022-12-29T01:47:21;10.60;99.90
8408;DHT22;4241;48.452;9.216;2022-12-29T01:49:50;10.70;99.90
8408;DHT22;4241;48.452;9.216;2022-12-29T01:52:18;10.60;99.90
8408;DHT22;4241;48.452;9.216;2022-12-29T01:54:48;10.70;99.90
8408;DHT22;4241;48.452;9.216;2022-12-29T01:57:19;10.80;99.90
8408;DHT22;4241;48.452;9.216;2022-12-29T01:59:52;10.80;99.90
8408;DHT22;4241;48.452;9.216;2022-12-29T02:07:17;10.80;99.90
8408;DHT22;4241;48.452;9.216;2022-12-29T02:09:46;10.90;99.90
8408;DHT22;4241;48.452;9.216;2022-12-29T02:14:41;10.70;99.90
8408;DHT22;4241;48.452;9.216;2022-12-29T02:17:18;10.90;99.90
8408;DHT22;4241;48.452;9.216;2022-12-29T02:23:04;10.70;99.90
8408;DHT22;4241;48.452;9.216;2022-12-29T02:25:51;10.80;99.90
8408;DHT22;4241;48.452;9.216;2022-12-29T02:28:33;10.70;99.90
8408;DHT22;4241;48.452;9.216;2022-12-29T02:31:11;10.60;99.90
8408;DHT22;4241;48.452;9.216;2022-12-29T02:33:50;10.60;99.90
8408;DHT22;4241;48.452;9.216;2022-12-29T02:36:26;10.60;99.90
8408;DHT22;4241;48.452;9.216;2022-12-29T02:39:00;10.50;99.90
8408;DHT22;4241;48.452;9.216;2022-12-29T02:41:32;10.40;99.90
8408;DHT22;4241;48.452;9.216;2022-12-29T02:44:04;10.50;99.90
8408;DHT22;4241;48.452;9.216;2022-12-29T02:46:37;10.60;99.90
8408;DHT22;4241;48.452;9.216;2022-12-29T02:49:12;10.70;99.90
8408;DHT22;4241;48.452;9.216;2022-12-29T02:51:46;10.70;99.90
8408;DHT22;4241;48.452;9.216;2022-12-29T02:54:17;10.90;99.90
8408;DHT22;4241;48.452;9.216;2022-12-29T02:59:29;10.90;99.90
8408;DHT22;4241;48.452;9.216;2022-12-29T03:05:03;11.00;99.90
8408;DHT22;4241;48.452;9.216;2022-12-29T03:07:37;11.10;99.90
8408;DHT22;4241;48.452;9.216;2022-12-29T03:10:14;11.20;99.90
8408;DHT22;4241;48.452;9.216;2022-12-29T03:12:47;11.20;99.90
8408;DHT22;4241;48.452;9.216;2022-12-29T03:15:35;11.30;99.90
8408;DHT22;4241;48.452;9.216;2022-12-29T03:18:26;11.20;99.90
8408;DHT22;4241;48.452;9.216;2022-12-29T03:21:02;11.40;99.90
8408;DHT22;4241;48.452;9.216;2022-12-29T03:23:31;11.40;99.90
8408;DHT22;4241;48.452;9.216;2022-12-29T03:26:02;11.40;99.90
8408;DHT22;4241;48.452;9.216;2022-12-29T03:28:34;11.50;99.90
8408;DHT22;4241;48.452;9.216;2022-12-29T03:31:03;11.30;99.90
8408;DHT22;4241;48.452;9.216;2022-12-29T03:33:32;11.50;99.90
8408;DHT22;4241;48.452;9.216;2022-12-29T03:36:03;11.50;99.90
8408;DHT22;4241;48.452;9.216;2022-12-29T03:38:35;11.50;99.90
8408;DHT22;4241;48.452;9.216;2022-12-29T03:41:07;11.30;99.90
8408;DHT22;4241;48.452;9.216;2022-12-29T03:43:34;11.50;99.90
8408;DHT22;4241;48.452;9.216;2022-12-29T03:48:28;11.40;99.90
8408;DHT22;4241;48.452;9.216;2022-12-29T03:50:56;11.40;99.90
8408;DHT22;4241;48.452;9.216;2022-12-29T03:55:50;11.30;99.90
8408;DHT22;4241;48.452;9.216;2022-12-29T04:00:44;11.40;99.90
8408;DHT22;4241;48.452;9.216;2022-12-29T04:08:07;11.20;99.90
8408;DHT22;4241;48.452;9.216;2022-12-29T04:10:34;11.20;99.90
8408;DHT22;4241;48.452;9.216;2022-12-29T04:13:01;11.20;99.90
8408;DHT22;4241;48.452;9.216;2022-12-29T04:17:54;11.10;99.90
8408;DHT22;4241;48.452;9.216;2022-12-29T04:20:21;11.20;99.90
8408;DHT22;4241;48.452;9.216;2022-12-29T04:23:07;11.20;99.90
8408;DHT22;4241;48.452;9.216;2022-12-29T04:25:34;11.10;99.90
8408;DHT22;4241;48.452;9.216;2022-12-29T04:28:01;11.10;99.90
8408;DHT22;4241;48.452;9.216;2022-12-29T04:30:28;11.30;99.90
8408;DHT22;4241;48.452;9.216;2022-12-29T04:40:17;11.30;99.90
8408;DHT22;4241;48.452;9.216;2022-12-29T04:42:44;11.20;99.90
8408;DHT22;4241;48.452;9.216;2022-12-29T04:45:11;11.20;99.90
8408;DHT22;4241;48.452;9.216;2022-12-29T04:47:41;11.20;99.90
8408;DHT22;4241;48.452;9.216;2022-12-29T04:50:08;11.20;99.90
8408;DHT22;4241;48.452;9.216;2022-12-29T04:55:03;11.00;99.90
8408;DHT22;4241;48.452;9.216;2022-12-29T04:57:31;11.00;99.90
8408;DHT22;4241;48.452;9.216;2022-12-29T04:59:58;10.90;99.90
8408;DHT22;4241;48.452;9.216;2022-12-29T05:02:25;10.90;99.90
8408;DHT22;4241;48.452;9.216;2022-12-29T05:07:19;10.80;99.90
8408;DHT22;4241;48.452;9.216;2022-12-29T05:09:46;10.70;99.90
8408;DHT22;4241;48.452;9.216;2022-12-29T05:12:12;10.60;99.90
8408;DHT22;4241;48.452;9.216;2022-12-29T05:14:41;10.60;99.90
8408;DHT22;4241;48.452;9.216;2022-12-29T05:22:03;10.50;99.90
8408;DHT22;4241;48.452;9.216;2022-12-29T05:24:30;10.60;99.90
8408;DHT22;4241;48.452;9.216;2022-12-29T05:26:57;10.50;99.90
8408;DHT22;4241;48.452;9.216;2022-12-29T05:29:24;10.80;99.90
8408;DHT22;4241;48.452;9.216;2022-12-29T05:31:52;10.80;99.90
8408;DHT22;4241;48.452;9.216;2022-12-29T05:34:19;10.70;99.90
8408;DHT22;4241;48.452;9.216;2022-12-29T05:36:46;10.80;99.90
8408;DHT22;4241;48.452;9.216;2022-12-29T05:41:39;10.80;99.90
8408;DHT22;4241;48.452;9.216;2022-12-29T05:44:06;10.70;99.90
8408;DHT22;4241;48.452;9.216;2022-12-29T05:46:33;10.90;99.90
8408;DHT22;4241;48.452;9.216;2022-12-29T05:49:01;10.90;99.90
8408;DHT22;4241;48.452;9.216;2022-12-29T05:53:55;10.80;99.90
8408;DHT22;4241;48.452;9.216;2022-12-29T05:58:49;11.00;99.90
8408;DHT22;4241;48.452;9.216;2022-12-29T06:01:16;11.00;99.90
8408;DHT22;4241;48.452;9.216;2022-12-29T06:03:43;11.10;99.90
8408;DHT22;4241;48.452;9.216;2022-12-29T06:06:11;11.20;99.90
8408;DHT22;4241;48.452;9.216;2022-12-29T06:08:38;11.10;99.90
8408;DHT22;4241;48.452;9.216;2022-12-29T06:11:05;11.10;99.90
8408;DHT22;4241;48.452;9.216;2022-12-29T06:13:31;11.10;99.90
8408;DHT22;4241;48.452;9.216;2022-12-29T06:16:01;11.20;99.90
8408;DHT22;4241;48.452;9.216;2022-12-29T06:18:28;11.10;99.90
8408;DHT22;4241;48.452;9.216;2022-12-29T06:20:59;11.20;99.90
8408;DHT22;4241;48.452;9.216;2022-12-29T06:23:27;11.10;99.90
8408;DHT22;4241;48.452;9.216;2022-12-29T06:28:21;11.10;99.90
8408;DHT22;4241;48.452;9.216;2022-12-29T06:33:15;11.00;99.90
8408;DHT22;4241;48.452;9.216;2022-12-29T06:35:43;11.10;99.90
8408;DHT22;4241;48.452;9.216;2022-12-29T06:38:11;11.00;99.90
8408;DHT22;4241;48.452;9.216;2022-12-29T06:40:39;11.00;99.90
8408;DHT22;4241;48.452;9.216;2022-12-29T06:43:06;11.00;99.90
8408;DHT22;4241;48.452;9.216;2022-12-29T06:48:00;11.00;99.90
8408;DHT22;4241;48.452;9.216;2022-12-29T06:50:27;10.80;99.90
8408;DHT22;4241;48.452;9.216;2022-12-29T06:52:54;10.80;99.90
8408;DHT22;4241;48.452;9.216;2022-12-29T06:55:20;10.80;99.90
8408;DHT22;4241;48.452;9.216;2022-12-29T06:57:49;10.90;99.90
8408;DHT22;4241;48.452;9.216;2022-12-29T07:00:16;10.80;99.90
8408;DHT22;4241;48.452;9.216;2022-12-29T07:02:43;10.80;99.90
8408;DHT22;4241;48.452;9.216;2022-12-29T07:05:10;10.80;99.90
8408;DHT22;4241;48.452;9.216;2022-12-29T07:07:39;10.70;99.90
8408;DHT22;4241;48.452;9.216;2022-12-29T07:12:33;10.80;99.90
8408;DHT22;4241;48.452;9.216;2022-12-29T07:15:01;10.80;99.90
8408;DHT22;4241;48.452;9.216;2022-12-29T07:17:29;10.90;99.90
8408;DHT22;4241;48.452;9.216;2022-12-29T07:24:49;10.90;99.90
8408;DHT22;4241;48.452;9.216;2022-12-29T07:27:16;10.80;99.90
8408;DHT22;4241;48.452;9.216;2022-12-29T07:32:11;10.90;99.90
8408;DHT22;4241;48.452;9.216;2022-12-29T07:44:27;10.70;99.90
8408;DHT22;4241;48.452;9.216;2022-12-29T07:49:22;10.90;99.90
8408;DHT22;4241;48.452;9.216;2022-12-29T07:51:49;10.90;99.90
8408;DHT22;4241;48.452;9.216;2022-12-29T07:54:16;10.80;99.90
8408;DHT22;4241;48.452;9.216;2022-12-29T07:56:43;10.90;99.90
8408;DHT22;4241;48.452;9.216;2022-12-29T07:59:10;10.90;99.90
8408;DHT22;4241;48.452;9.216;2022-12-29T08:01:38;10.90;99.90
8408;DHT22;4241;48.452;9.216;2022-12-29T08:04:05;10.90;99.90
8408;DHT22;4241;48.452;9.216;2022-12-29T08:06:33;11.00;99.90
8408;DHT22;4241;48.452;9.216;2022-12-29T08:23:44;11.40;99.90
8408;DHT22;4241;48.452;9.216;2022-12-29T08:28:38;11.40;99.90
8408;DHT22;4241;48.452;9.216;2022-12-29T08:31:05;11.50;99.90
8408;DHT22;4241;48.452;9.216;2022-12-29T08:33:32;11.60;99.90
8408;DHT22;4241;48.452;9.216;2022-12-29T08:35:59;11.70;99.90
8408;DHT22;4241;48.452;9.216;2022-12-29T08:38:27;11.70;99.90
8408;DHT22;4241;48.452;9.216;2022-12-29T08:40:55;11.70;99.90
8408;DHT22;4241;48.452;9.216;2022-12-29T08:43:23;11.80;99.90
8408;DHT22;4241;48.452;9.216;2022-12-29T08:45:50;11.80;99.90
8408;DHT22;4241;48.452;9.216;2022-12-29T08:50:48;11.80;99.90
8408;DHT22;4241;48.452;9.216;2022-12-29T08:53:15;12.10;99.90
8408;DHT22;4241;48.452;9.216;2022-12-29T08:55:44;11.80;99.90
8408;DHT22;4241;48.452;9.216;2022-12-29T08:58:12;11.90;99.90
8408;DHT22;4241;48.452;9.216;2022-12-29T09:00:40;11.90;99.90
8408;DHT22;4241;48.452;9.216;2022-12-29T09:03:07;11.90;99.90
8408;DHT22;4241;48.452;9.216;2022-12-29T09:05:33;11.80;99.90
8408;DHT22;4241;48.452;9.216;2022-12-29T09:08:00;11.80;99.90
8408;DHT22;4241;48.452;9.216;2022-12-29T09:10:27;11.80;99.90
8408;DHT22;4241;48.452;9.216;2022-12-29T09:15:22;11.70;99.90
8408;DHT22;4241;48.452;9.216;2022-12-29T09:20:18;11.70;99.90
8408;DHT22;4241;48.452;9.216;2022-12-29T09:22:45;11.60;99.90
8408;DHT22;4241;48.452;9.216;2022-12-29T09:25:13;11.70;99.90
8408;DHT22;4241;48.452;9.216;2022-12-29T09:27:40;11.70;99.90
8408;DHT22;4241;48.452;9.216;2022-12-29T09:30:10;11.60;99.90
8408;DHT22;4241;48.452;9.216;2022-12-29T09:32:38;11.70;99.90
8408;DHT22;4241;48.452;9.216;2022-12-29T09:35:05;11.70;99.90
8408;DHT22;4241;48.452;9.216;2022-12-29T09:37:32;11.70;99.90
8408;DHT22;4241;48.452;9.216;2022-12-29T09:39:59;11.60;99.90
8408;DHT22;4241;48.452;9.216;2022-12-29T09:42:29;11.60;99.90
8408;DHT22;4241;48.452;9.216;2022-12-29T09:45:09;11.80;99.90
8408;DHT22;4241;48.452;9.216;2022-12-29T09:47:40;11.60;99.90
8408;DHT22;4241;48.452;9.216;2022-12-29T09:50:13;11.60;99.90
8408;DHT22;4241;48.452;9.216;2022-12-29T09:52:46;11.60;99.90
8408;DHT22;4241;48.452;9.216;2022-12-29T09:55:17;11.70;99.90
8408;DHT22;4241;48.452;9.216;2022-12-29T09:57:52;11.70;99.90
8408;DHT22;4241;48.452;9.216;2022-12-29T10:00:22;11.70;99.90
8408;DHT22;4241;48.452;9.216;2022-12-29T10:02:54;11.70;99.90
8408;DHT22;4241;48.452;9.216;2022-12-29T10:05:35;11.70;99.90
8408;DHT22;4241;48.452;9.216;2022-12-29T10:08:13;11.60;99.90
8408;DHT22;4241;48.452;9.216;2022-12-29T10:10:46;11.60;99.90
8408;DHT22;4241;48.452;9.216;2022-12-29T10:13:26;11.60;99.90
8408;DHT22;4241;48.452;9.216;2022-12-29T10:15:59;11.60;99.90
8408;DHT22;4241;48.452;9.216;2022-12-29T10:19:09;11.60;99.90
8408;DHT22;4241;48.452;9.216;2022-12-29T10:21:47;11.70;99.90
8408;DHT22;4241;48.452;9.216;2022-12-29T10:24:17;11.70;99.90
8408;DHT22;4241;48.452;9.216;2022-12-29T10:26:46;11.80;99.90
8408;DHT22;4241;48.452;9.216;2022-12-29T10:29:17;11.70;99.90
8408;DHT22;4241;48.452;9.216;2022-12-29T10:31:47;11.80;99.90
8408;DHT22;4241;48.452;9.216;2022-12-29T10:34:20;11.80;99.90
8408;DHT22;4241;48.452;9.216;2022-12-29T10:36:49;11.80;99.90
8408;DHT22;4241;48.452;9.216;2022-12-29T10:39:22;11.80;99.90
8408;DHT22;4241;48.452;9.216;2022-12-29T10:41:53;11.90;99.90
8408;DHT22;4241;48.452;9.216;2022-12-29T10:44:21;11.90;99.90
8408;DHT22;4241;48.452;9.216;2022-12-29T10:46:57;11.90;99.90
8408;DHT22;4241;48.452;9.216;2022-12-29T10:49:28;11.90;99.90
8408;DHT22;4241;48.452;9.216;2022-12-29T10:51:59;12.00;99.90
8408;DHT22;4241;48.452;9.216;2022-12-29T10:54:29;12.00;99.90
8408;DHT22;4241;48.452;9.216;2022-12-29T10:57:01;12.00;99.90
8408;DHT22;4241;48.452;9.216;2022-12-29T10:59:30;12.00;99.90
8408;DHT22;4241;48.452;9.216;2022-12-29T11:02:02;12.00;99.90
8408;DHT22;4241;48.452;9.216;2022-12-29T11:04:46;12.00;99.90
8408;DHT22;4241;48.452;9.216;2022-12-29T11:07:17;11.90;99.90
8408;DHT22;4241;48.452;9.216;2022-12-29T11:09:45;12.00;99.90
8408;DHT22;4241;48.452;9.216;2022-12-29T11:12:20;11.90;99.90
8408;DHT22;4241;48.452;9.216;2022-12-29T11:15:05;12.10;99.90
8408;DHT22;4241;48.452;9.216;2022-12-29T11:17:43;12.10;99.90
8408;DHT22;4241;48.452;9.216;2022-12-29T11:20:27;12.00;99.90
8408;DHT22;4241;48.452;9.216;2022-12-29T11:22:55;11.80;99.90
8408;DHT22;4241;48.452;9.216;2022-12-29T11:25:22;11.90;99.90
8408;DHT22;4241;48.452;9.216;2022-12-29T11:27:55;11.90;99.90
8408;DHT22;4241;48.452;9.216;2022-12-29T11:30:27;11.70;99.90
8408;DHT22;4241;48.452;9.216;2022-12-29T11:32:55;11.80;99.90
8408;DHT22;4241;48.452;9.216;2022-12-29T11:35:35;11.70;99.90
8408;DHT22;4241;48.452;9.216;2022-12-29T11:38:02;11.80;99.90
8408;DHT22;4241;48.452;9.216;2022-12-29T11:40:30;11.80;99.90
8408;DHT22;4241;48.452;9.216;2022-12-29T11:43:00;11.80;99.90
8408;DHT22;4241;48.452;9.216;2022-12-29T11:45:30;11.90;99.90
8408;DHT22;4241;48.452;9.216;2022-12-29T11:48:07;11.80;99.90
8408;DHT22;4241;48.452;9.216;2022-12-29T11:50:38;12.00;99.90
8408;DHT22;4241;48.452;9.216;2022-12-29T11:53:14;11.90;99.90
8408;DHT22;4241;48.452;9.216;2022-12-29T11:55:51;11.90;99.90
8408;DHT22;4241;48.452;9.216;2022-12-29T11:58:18;11.90;99.90
8408;DHT22;4241;48.452;9.216;2022-12-29T12:00:45;11.90;99.90
8408;DHT22;4241;48.452;9.216;2022-12-29T12:03:16;11.80;99.90
8408;DHT22;4241;48.452;9.216;2022-12-29T12:05:47;11.90;99.90
8408;DHT22;4241;48.452;9.216;2022-12-29T12:08:26;11.90;99.90
8408;DHT22;4241;48.452;9.216;2022-12-29T12:11:01;11.90;99.90
8408;DHT22;4241;48.452;9.216;2022-12-29T12:13:33;11.80;99.90
8408;DHT22;4241;48.452;9.216;2022-12-29T12:16:06;11.90;99.90
8408;DHT22;4241;48.452;9.216;2022-12-29T12:18:40;11.80;99.90
8408;DHT22;4241;48.452;9.216;2022-12-29T12:21:20;11.70;99.90
8408;DHT22;4241;48.452;9.216;2022-12-29T12:24:02;11.60;99.90
8408;DHT22;4241;48.452;9.216;2022-12-29T12:26:36;11.60;99.90
8408;DHT22;4241;48.452;9.216;2022-12-29T12:29:10;11.40;99.90
8408;DHT22;4241;48.452;9.216;2022-12-29T12:31:45;11.80;99.90
8408;DHT22;4241;48.452;9.216;2022-12-29T12:34:17;11.70;99.90
8408;DHT22;4241;48.452;9.216;2022-12-29T12:37:08;11.60;99.90
8408;DHT22;4241;48.452;9.216;2022-12-29T12:39:47;11.70;99.90
8408;DHT22;4241;48.452;9.216;2022-12-29T12:42:30;11.80;99.90
8408;DHT22;4241;48.452;9.216;2022-12-29T12:47:58;11.80;99.90
8408;DHT22;4241;48.452;9.216;2022-12-29T12:50:39;11.80;99.90
8408;DHT22;4241;48.452;9.216;2022-12-29T12:53:26;11.90;99.90
8408;DHT22;4241;48.452;9.216;2022-12-29T12:56:05;11.70;99.90
8408;DHT22;4241;48.452;9.216;2022-12-29T12:58:36;11.70;99.90
8408;DHT22;4241;48.452;9.216;2022-12-29T13:01:18;11.60;99.90
8408;DHT22;4241;48.452;9.216;2022-12-29T13:04:20;11.40;99.90
8408;DHT22;4241;48.452;9.216;2022-12-29T13:06:56;11.30;99.90
8408;DHT22;4241;48.452;9.216;2022-12-29T13:09:40;11.30;99.90
8408;DHT22;4241;48.452;9.216;2022-12-29T13:12:19;11.30;99.90
8408;DHT22;4241;48.452;9.216;2022-12-29T13:14:56;11.30;99.90
8408;DHT22;4241;48.452;9.216;2022-12-29T13:17:30;11.20;99.90
8408;DHT22;4241;48.452;9.216;2022-12-29T13:20:05;11.10;99.90
8408;DHT22;4241;48.452;9.216;2022-12-29T13:22:40;11.10;99.90
8408;DHT22;4241;48.452;9.216;2022-12-29T13:25:25;11.10;99.90
8408;DHT22;4241;48.452;9.216;2022-12-29T13:27:57;11.10;99.90
8408;DHT22;4241;48.452;9.216;2022-12-29T13:30:31;11.20;99.90
8408;DHT22;4241;48.452;9.216;2022-12-29T13:33:06;11.10;99.90
8408;DHT22;4241;48.452;9.216;2022-12-29T13:35:58;11.30;99.90
8408;DHT22;4241;48.452;9.216;2022-12-29T13:38:30;11.30;99.90
8408;DHT22;4241;48.452;9.216;2022-12-29T13:41:03;11.30;99.90
8408;DHT22;4241;48.452;9.216;2022-12-29T13:43:32;11.40;99.90
8408;DHT22;4241;48.452;9.216;2022-12-29T13:46:05;11.40;99.90
8408;DHT22;4241;48.452;9.216;2022-12-29T13:48:39;11.30;99.90
8408;DHT22;4241;48.452;9.216;2022-12-29T13:51:08;15.00;99.90
8408;DHT22;4241;48.452;9.216;2022-12-29T13:53:42;11.50;99.90
8408;DHT22;4241;48.452;9.216;2022-12-29T13:56:25;11.50;99.90
8408;DHT22;4241;48.452;9.216;2022-12-29T13:59:00;11.40;99.90
8408;DHT22;4241;48.452;9.216;2022-12-29T14:01:33;11.40;99.90
8408;DHT22;4241;48.452;9.216;2022-12-29T14:04:03;11.50;99.90
8408;DHT22;4241;48.452;9.216;2022-12-29T14:06:36;11.60;99.90
8408;DHT22;4241;48.452;9.216;2022-12-29T14:09:39;11.70;99.90
8408;DHT22;4241;48.452;9.216;2022-12-29T14:12:31;11.70;99.90
8408;DHT22;4241;48.452;9.216;2022-12-29T14:15:04;11.60;99.90
8408;DHT22;4241;48.452;9.216;2022-12-29T14:19:59;11.60;99.90
8408;DHT22;4241;48.452;9.216;2022-12-29T14:22:27;11.70;99.90
8408;DHT22;4241;48.452;9.216;2022-12-29T14:24:54;11.70;99.90
8408;DHT22;4241;48.452;9.216;2022-12-29T14:27:51;11.70;99.90
8408;DHT22;4241;48.452;9.216;2022-12-29T14:30:46;11.70;99.90
8408;DHT22;4241;48.452;9.216;2022-12-29T14:33:14;11.70;99.90
8408;DHT22;4241;48.452;9.216;2022-12-29T14:35:44;11.60;99.90
8408;DHT22;4241;48.452;9.216;2022-12-29T14:38:21;11.60;99.90
8408;DHT22;4241;48.452;9.216;2022-12-29T14:40:49;11.50;99.90
8408;DHT22;4241;48.452;9.216;2022-12-29T14:43:27;11.40;99.90
8408;DHT22;4241;48.452;9.216;2022-12-29T14:45:59;11.40;99.90
8408;DHT22;4241;48.452;9.216;2022-12-29T14:48:34;11.40;99.90
8408;DHT22;4241;48.452;9.216;2022-12-29T14:51:15;11.30;99.90
8408;DHT22;4241;48.452;9.216;2022-12-29T14:53:45;11.40;99.90
8408;DHT22;4241;48.452;9.216;2022-12-29T14:56:14;11.30;99.90
8408;DHT22;4241;48.452;9.216;2022-12-29T14:58:47;11.40;99.90
8408;DHT22;4241;48.452;9.216;2022-12-29T15:01:33;11.40;99.90
8408;DHT22;4241;48.452;9.216;2022-12-29T15:04:06;11.30;99.90
8408;DHT22;4241;48.452;9.216;2022-12-29T15:06:40;11.30;99.90
8408;DHT22;4241;48.452;9.216;2022-12-29T15:09:16;11.30;99.90
8408;DHT22;4241;48.452;9.216;2022-12-29T15:11:50;11.30;99.90
8408;DHT22;4241;48.452;9.216;2022-12-29T15:14:36;11.20;99.90
8408;DHT22;4241;48.452;9.216;2022-12-29T15:17:10;11.20;99.90
8408;DHT22;4241;48.452;9.216;2022-12-29T15:19:37;11.20;99.90
8408;DHT22;4241;48.452;9.216;2022-12-29T15:24:32;11.00;99.90
8408;DHT22;4241;48.452;9.216;2022-12-29T15:27:03;11.10;99.90
8408;DHT22;4241;48.452;9.216;2022-12-29T15:29:36;11.10;99.90
8408;DHT22;4241;48.452;9.216;2022-12-29T15:32:17;11.10;99.90
8408;DHT22;4241;48.452;9.216;2022-12-29T15:34:46;11.10;99.90
8408;DHT22;4241;48.452;9.216;2022-12-29T15:37:21;10.90;99.90
8408;DHT22;4241;48.452;9.216;2022-12-29T15:39:49;11.10;99.90
8408;DHT22;4241;48.452;9.216;2022-12-29T15:45:17;11.00;99.90
8408;DHT22;4241;48.452;9.216;2022-12-29T15:47:45;11.00;99.90
8408;DHT22;4241;48.452;9.216;2022-12-29T15:50:20;11.10;99.90
8408;DHT22;4241;48.452;9.216;2022-12-29T15:52:48;11.10;99.90
8408;DHT22;4241;48.452;9.216;2022-12-29T15:55:21;11.00;99.90
8408;DHT22;4241;48.452;9.216;2022-12-29T15:57:48;11.00;99.90
8408;DHT22;4241;48.452;9.216;2022-12-29T16:00:24;11.00;99.90
8408;DHT22;4241;48.452;9.216;2022-12-29T16:02:53;11.00;99.90
8408;DHT22;4241;48.452;9.216;2022-12-29T16:07:55;10.90;99.90
8408;DHT22;4241;48.452;9.216;2022-12-29T16:10:26;11.00;99.90
8408;DHT22;4241;48.452;9.216;2022-12-29T16:13:01;10.90;99.90
8408;DHT22;4241;48.452;9.216;2022-12-29T16:15:30;11.10;99.90
8408;DHT22;4241;48.452;9.216;2022-12-29T16:17:57;10.90;99.90
8408;DHT22;4241;48.452;9.216;2022-12-29T16:20:25;10.90;99.90
8408;DHT22;4241;48.452;9.216;2022-12-29T16:22:58;10.90;99.90
8408;DHT22;4241;48.452;9.216;2022-12-29T16:25:29;10.90;99.90
8408;DHT22;4241;48.452;9.216;2022-12-29T16:27:57;10.90;99.90
8408;DHT22;4241;48.452;9.216;2022-12-29T16:30:26;11.00;99.90
8408;DHT22;4241;48.452;9.216;2022-12-29T16:32:56;10.80;99.90
8408;DHT22;4241;48.452;9.216;2022-12-29T16:35:25;10.90;99.90
8408;DHT22;4241;48.452;9.216;2022-12-29T16:38:13;10.80;99.90
8408;DHT22;4241;48.452;9.216;2022-12-29T16:40:49;10.90;99.90
8408;DHT22;4241;48.452;9.216;2022-12-29T16:43:21;10.90;99.90
8408;DHT22;4241;48.452;9.216;2022-12-29T16:46:15;10.80;99.90
8408;DHT22;4241;48.452;9.216;2022-12-29T16:48:49;10.90;99.90
8408;DHT22;4241;48.452;9.216;2022-12-29T16:51:21;10.90;99.90
8408;DHT22;4241;48.452;9.216;2022-12-29T16:53:53;10.90;99.90
8408;DHT22;4241;48.452;9.216;2022-12-29T16:56:22;10.90;99.90
8408;DHT22;4241;48.452;9.216;2022-12-29T16:58:53;11.00;99.90
8408;DHT22;4241;48.452;9.216;2022-12-29T17:01:24;11.00;99.90
8408;DHT22;4241;48.452;9.216;2022-12-29T17:03:54;11.10;99.90
8408;DHT22;4241;48.452;9.216;2022-12-29T17:08:51;11.20;99.90
8408;DHT22;4241;48.452;9.216;2022-12-29T17:11:24;11.00;99.90
8408;DHT22;4241;48.452;9.216;2022-12-29T17:14:20;10.90;99.90
8408;DHT22;4241;48.452;9.216;2022-12-29T17:19:18;11.00;99.90
8408;DHT22;4241;48.452;9.216;2022-12-29T17:21:46;10.90;99.90
8408;DHT22;4241;48.452;9.216;2022-12-29T17:24:16;11.00;99.90
8408;DHT22;4241;48.452;9.216;2022-12-29T17:26:44;11.00;99.90
8408;DHT22;4241;48.452;9.216;2022-12-29T17:29:18;11.00;99.90
8408;DHT22;4241;48.452;9.216;2022-12-29T17:36:41;11.00;99.90
8408;DHT22;4241;48.452;9.216;2022-12-29T17:39:08;11.00;99.90
8408;DHT22;4241;48.452;9.216;2022-12-29T17:41:36;11.00;99.90
8408;DHT22;4241;48.452;9.216;2022-12-29T17:44:04;11.00;99.90
8408;DHT22;4241;48.452;9.216;2022-12-29T17:48:58;11.00;99.90
8408;DHT22;4241;48.452;9.216;2022-12-29T17:51:25;11.00;99.90
8408;DHT22;4241;48.452;9.216;2022-12-29T17:53:53;11.00;99.90
8408;DHT22;4241;48.452;9.216;2022-12-29T17:56:21;10.90;99.90
8408;DHT22;4241;48.452;9.216;2022-12-29T18:01:17;10.90;99.90
8408;DHT22;4241;48.452;9.216;2022-12-29T18:11:20;10.40;99.90
8408;DHT22;4241;48.452;9.216;2022-12-29T18:13:48;11.00;99.90
8408;DHT22;4241;48.452;9.216;2022-12-29T18:21:15;11.00;99.90
8408;DHT22;4241;48.452;9.216;2022-12-29T18:26:15;11.10;99.90
8408;DHT22;4241;48.452;9.216;2022-12-29T18:31:17;11.00;99.90
8408;DHT22;4241;48.452;9.216;2022-12-29T18:36:12;11.00;99.90
8408;DHT22;4241;48.452;9.216;2022-12-29T18:41:15;11.00;99.90
8408;DHT22;4241;48.452;9.216;2022-12-29T18:43:42;11.00;99.90
8408;DHT22;4241;48.452;9.216;2022-12-29T18:46:09;10.40;99.90
8408;DHT22;4241;48.452;9.216;2022-12-29T18:48:36;10.10;99.90
8408;DHT22;4241;48.452;9.216;2022-12-29T18:51:04;10.90;99.90
8408;DHT22;4241;48.452;9.216;2022-12-29T18:56:01;10.90;99.90
8408;DHT22;4241;48.452;9.216;2022-12-29T18:58:30;10.90;99.90
8408;DHT22;4241;48.452;9.216;2022-12-29T19:00:56;11.00;99.90
8408;DHT22;4241;48.452;9.216;2022-12-29T19:03:23;10.80;99.90
8408;DHT22;4241;48.452;9.216;2022-12-29T19:05:50;10.90;99.90
8408;DHT22;4241;48.452;9.216;2022-12-29T19:08:17;10.80;99.90
8408;DHT22;4241;48.452;9.216;2022-12-29T19:10:44;10.90;99.90
8408;DHT22;4241;48.452;9.216;2022-12-29T19:13:15;10.90;99.90
8408;DHT22;4241;48.452;9.216;2022-12-29T19:15:44;10.90;99.90
8408;DHT22;4241;48.452;9.216;2022-12-29T19:18:16;10.90;99.90
8408;DHT22;4241;48.452;9.216;2022-12-29T19:20:44;11.00;99.90
8408;DHT22;4241;48.452;9.216;2022-12-29T19:23:13;10.90;99.90
8408;DHT22;4241;48.452;9.216;2022-12-29T19:25:40;10.90;99.90
8408;DHT22;4241;48.452;9.216;2022-12-29T19:28:14;10.90;99.90
8408;DHT22;4241;48.452;9.216;2022-12-29T19:30:43;10.90;99.90
8408;DHT22;4241;48.452;9.216;2022-12-29T19:35:37;10.70;99.90
8408;DHT22;4241;48.452;9.216;2022-12-29T19:38:04;10.80;99.90
8408;DHT22;4241;48.452;9.216;2022-12-29T19:40:31;11.00;99.90
8408;DHT22;4241;48.452;9.216;2022-12-29T19:42:58;10.70;99.90
8408;DHT22;4241;48.452;9.216;2022-12-29T19:47:54;10.90;99.90
8408;DHT22;4241;48.452;9.216;2022-12-29T19:50:20;10.90;99.90
8408;DHT22;4241;48.452;9.216;2022-12-29T19:52:48;10.90;99.90
8408;DHT22;4241;48.452;9.216;2022-12-29T19:55:15;10.80;99.90
8408;DHT22;4241;48.452;9.216;2022-12-29T19:57:43;10.80;99.90
8408;DHT22;4241;48.452;9.216;2022-12-29T20:00:11;10.80;99.90